Palermo, Italy
Current Conditions -  °F | °C
As of 2:50 PM on Friday 24 Oct 2014 (Local Time) from LICJ Reporting Station
Scattered Clouds Scattered Clouds  
Wind Chill: 68°   Ceiling: Unl
Heat Index: 68°   Visibility: 6mi
Dew Point: 52°   Wind: 8mph
Humidity: 56%   Direction: 10°N
Pressure: 29.85"   Gusts: NA
Location:  38.12°N, 13.36°E
Report Text: LICJ 241250Z 01007KT 9999 SCT040 20/11 Q1011
Loading
Personal Weather Stations






























Interactive Weather Map New forecast layout! Learn more

10-Day Weather Forecast

Advertisements
Track Severe Weather on mobile